Aviation Digital Data Service (ADDS)

Output produced by METARs form (0014 UTC 25 November 2017)
found at http://www.aviationweather.gov/adds/metars/
 
KBOS 242354Z 20012KT 10SM CLR 06/00 A2996 RMK AO2 SLP144 T00610000 10100 20056 53008
KBOS 242330Z 2500/2606 21010KT P6SM SKC 
     FM250600 20005KT P6SM SCT250 
     FM251400 21012KT P6SM SCT250 
     FM260100 24006KT P6SM VCSH BKN060
       
KLGA 242351Z 19005KT 10SM CLR 09/M03 A2997 RMK AO2 SLP148 T00891028 10106 20083 51006
KLGA 242340Z 2500/2524 18008KT P6SM SKC 
     FM250100 21005KT P6SM FEW200 
     FM251900 24007KT P6SM SCT100 BKN200 
     FM252100 26008KT P6SM VCSH BKN070 BKN100
       
KJFK 242351Z 22008KT 10SM CLR 07/02 A2999 RMK AO2 SLP155 T00720017 10089 20061 51002
KJFK 242340Z 2500/2606 20012KT P6SM SKC 
     FM250100 22008KT P6SM FEW200 
     FM252000 25009KT P6SM SCT100 BKN200 
     FM252300 28010KT P6SM VCSH BKN070 BKN100 
     FM260200 29011G19KT P6SM OVC040
       
KEWR 242351Z 20005KT 10SM CLR 07/M03 A2997 RMK AO2 SLP149 T00671028 10111 20067 51005
KEWR 242340Z 2500/2606 20005KT P6SM SKC 
     FM250600 23005KT P6SM FEW200 
     FM252100 26009KT P6SM VCSH BKN050 BKN090 BKN200 
     FM260100 29010KT P6SM VCSH BKN045 OVC100 
     FM260200 29009KT P6SM OVC045
       
KPHL 242354Z 19004KT 10SM CLR 08/M01 A2998 RMK AO2 SLP153 T00781011 10106 20072 50002 $
KPHL 242321Z 2500/2606 18006KT P6SM SKC 
     FM250200 VRB02KT P6SM SKC 
     FM251500 22006KT P6SM SCT250 
     FM251800 23007KT P6SM SCT050 BKN250 
     FM252200 27007KT P6SM BKN050 OVC100 
     FM260300 29007KT P6SM SCT150 BKN250
       
KBWI 242354Z 16003KT 10SM CLR 06/01 A2997 RMK AO2 SLP149 T00560006 10122 20050 53001
KBWI 242322Z 2500/2606 00000KT P6SM SKC 
     FM251800 25006KT P6SM OVC100 
     FM260400 29007KT P6SM SCT050
       
KDCA 242352Z 18005KT 10SM CLR 08/00 A2998 RMK AO2 SLP150 T00830000 10117 20083 55002
KDCA 242322Z 2500/2524 17006KT P6SM SKC 
     FM251700 21006KT P6SM BKN100 
     FM252200 27006KT P6SM OVC045
       
KIAD 242352Z 15005KT 10SM CLR 06/M02 A2995 RMK AO2 SLP145 T00611017 10128 20061 56002
KIAD 242322Z 2500/2606 VRB03KT P6SM SKC 
     FM251800 25006KT P6SM OVC090 
     FM252300 29006KT P6SM BKN045 
     FM260100 30007KT P6SM SCT050
       
KCLT 242352Z 00000KT 10SM CLR 10/01 A2997 RMK AO2 SLP152 T01000011 10167 20056 53007
KCLT 242320Z 2500/2524 18002KT P6SM FEW250 
     FM251400 24005KT P6SM SCT250 
     FM251800 23006KT P6SM SCT120 BKN200
       
KATL 242352Z 00000KT 10SM FEW250 13/07 A2996 RMK AO2 SLP148 T01280067 10172 20128 53009
KATL 242327Z 2500/2606 20003KT P6SM FEW250 
     FM251000 24004KT P6SM FEW025 FEW250 
     FM251400 26007KT P6SM SCT250 
     FM251800 28008KT P6SM BKN250 
     FM260200 32008KT P6SM SCT120 BKN250
       
KTPA 242353Z 33006KT 10SM FEW055 17/16 A2996 RMK AO2 SLP145 T01720156 10217 20172 53017
KTPA 242344Z 2500/2606 29008KT P6SM BKN060 
     FM250200 VRB03KT P6SM FEW020 BKN040 
     FM250900 VRB03KT 6SM BR FEW015 SCT100 
     FM251400 VRB06KT P6SM FEW030 SCT250 
     FM251700 27006KT P6SM FEW040 SCT100 
     FM260100 VRB03KT P6SM FEW050 BKN100
       
KMCO 250005Z 00000KT 10SM SCT011 BKN075 17/15 A2996 RMK AO2 T01670150
KMCO 250007Z 2500/2606 34003KT P6SM SCT011 BKN070 
     TEMPO 2500/2501 BKN010 
     FM250600 34003KT 3SM BR BKN005 
     TEMPO 2509/2513 1SM BR BKN002 
     FM251500 32005KT P6SM SCT035 
     FM260000 35003KT P6SM SKC
       
KMIA 242353Z 26008KT 10SM FEW035 FEW250 25/18 A2990 RMK AO2 SLP126 T02500178 10278 20244 51013 $
KMIA 242331Z 2500/2606 26007KT P6SM FEW040 SCT250 
     FM250300 VRB03KT P6SM FEW040 SCT250 
     FM251700 35006KT P6SM SCT040 SCT250 
     FM260000 VRB04KT P6SM FEW250
       
KFLL 242353Z 28004KT 10SM FEW037 24/19 A2989 RMK AO2 SLP122 T02390194 10267 20239 51014
KFLL 242331Z 2500/2606 28006KT P6SM SCT035 SCT250 
     FM250300 VRB03KT P6SM FEW040 SCT080 
     FM251500 32007KT P6SM SCT050 SCT250 
     FM260000 VRB03KT P6SM FEW250
       
KDTW 242353Z 19016KT 10SM BKN150 10/01 A2963 RMK AO2 SLP039 T01000006 10122 20094 58010
KDTW 242323Z 2500/2606 20013KT P6SM SCT120 BKN200 WS015/24045KT 
     FM250900 23008KT P6SM SCT028 BKN035 OVC100 
     FM251300 28010KT P6SM SCT018 OVC025 
     FM251700 30013G20KT P6SM BKN035 
     FM260400 30013KT P6SM SCT040
       
KORD 242351Z 20014G21KT 10SM FEW150 13/04 A2948 RMK AO2 SLP984 T01330039 10172 20133 53004
KORD 242329Z 2423/2524 20016G25KT P6SM FEW120 
     FM250100 24014G21KT P6SM SCT080 BKN120 
     FM250400 31014G22KT P6SM SCT040 BKN080 BKN120 
     FM252300 30008KT P6SM FEW250
       
KMDW 242353Z 20017G22KT 10SM FEW150 13/04 A2950 RMK AO2 SLP993 T01280044 10167 20128 53002
KMDW 242329Z 2423/2518 20016G25KT P6SM FEW120 
     FM250100 24014G21KT P6SM SCT080 BKN120 
     FM250500 31014G22KT P6SM SCT040 BKN080 BKN120
       
KMSP 242353Z 29007KT 10SM CLR 08/04 A2957 RMK AO2 SLP018 60000 T00780044 10156 20072 51057
KMSP 242328Z 2500/2606 31016KT P6SM SKC 
     FM250600 30010KT P6SM SKC 
     FM252200 31007KT P6SM FEW250
       
KMEM 242354Z 18006KT 10SM FEW200 SCT250 12/01 A2988 RMK AO2 SLP119 T01220006 10172 20117 55003
KMEM 242320Z 2500/2606 19010KT P6SM BKN250 
     FM250300 20009KT P6SM BKN200 WS010/22030KT 
     FM250800 22006KT P6SM VCSH BKN080 OVC150 
     FM251600 01009KT P6SM BKN150 
     FM260000 02005KT P6SM FEW250
       
KDFW 242353Z 16010KT 10SM BKN250 21/03 A2977 RMK AO2 SLP077 T02110033 10261 20211 55004
KDFW 242333Z 2500/2606 17010KT P6SM SCT250 
     FM251500 03012KT P6SM SCT250
       
KIAH 242353Z 13006KT 10SM SCT250 17/08 A2991 RMK AO2 SLP130 T01670083 10228 20167 55008
KIAH 242320Z 2500/2606 17005KT P6SM FEW250 
     FM251900 17005KT P6SM SCT040 
     FM252100 16005KT P6SM BKN050 
     FM260400 VRB02KT P6SM SCT250
       
KDEN 242353Z 08012KT 10SM SCT090 BKN110 BKN220 12/01 A2998 RMK AO2 SLP102 VIRGA ALQDS T01170006 10217 20117 51041
KDEN 242337Z 2500/2606 08011KT P6SM FEW070 BKN110 BKN150 
     FM250200 13009KT P6SM FEW080 SCT120 BKN200 
     FM250400 17008KT P6SM SCT140 SCT200 
     FM250900 20009KT P6SM FEW150 
     FM251900 16008KT P6SM SCT150 SCT220
       
KSLC 242354Z 25004KT 10SM FEW060 SCT080 BKN200 BKN250 12/04 A3010 RMK AO2 SLP175 T01170044 10178 20117 51010
KSLC 242328Z 2500/2606 29006KT P6SM SCT090 BKN110 
     FM250200 14007KT P6SM SCT120 BKN200 
     FM252000 32006KT P6SM SCT120 BKN200 
     FM260200 14009KT P6SM SCT120 BKN200
       
KSEA 242353Z 18006KT 10SM SCT036 OVC050 10/06 A3007 RMK AO2 RAB13E26 SLP189 P0000 60000 T01000056 10111 20100 55004
KSEA 242320Z 2500/2606 17011KT P6SM FEW020 OVC040 
     FM251000 16005KT P6SM SCT100 SCT250 
     FM251600 12006KT P6SM BKN120 OVC200 
     FM251900 04006KT P6SM OVC100 
     FM260100 04006KT P6SM -RA OVC050
       
KSFO 242356Z 29011KT 10SM BKN150 BKN200 18/13 A3001 RMK AO2 SLP160 T01780133 10206 20161 56010
KSFO 242327Z 2500/2606 30008KT P6SM BKN120 BKN200 
     FM250100 29011KT P6SM BKN120 
     FM250500 30007KT P6SM BKN120 
     FM251000 VRB04KT P6SM FEW010 BKN120 
     FM252100 15008KT P6SM BKN150 
     FM260300 16005KT P6SM OVC150
       
KLAX 242353Z 24006KT 10SM FEW055 FEW100 SCT200 23/13 A2985 RMK AO2 SLP108 T02280133 10278 20222 56008
KLAX 242336Z 2500/2606 26008KT P6SM SCT250 
     FM250400 VRB03KT P6SM SCT250 
     FM251400 11005KT P6SM SCT250 
     FM252000 25008KT P6SM SCT250 
     FM260400 VRB03KT P6SM BKN250
       
KSAN 242351Z 16006KT 10SM FEW200 SCT250 22/16 A2986 RMK AO2 SLP112 T02220156 10267 20217 56007 $
KSAN 242335Z 2500/2606 18006KT P6SM FEW250 
     FM251100 VRB04KT 3SM BR VCFG SCT003 
     FM251600 VRB04KT P6SM FEW005 
     FM252100 26008KT P6SM FEW250 
     FM260000 VRB04KT P6SM SCT005
       
KLAS 242356Z 05004KT 10SM FEW160 BKN250 24/03 A2994 RMK AO2 SLP124 T02390033 10250 20194 56007
KLAS 242346Z 2500/2606 05005KT P6SM BKN250 
     FM250300 21006KT P6SM SCT250 
     FM251600 VRB05KT P6SM SKC 
     FM260300 21006KT P6SM SKC
       
KPHX 242351Z 00000KT 10SM FEW200 FEW250 29/02 A2985 RMK AO2 SLP094 T02890017 10300 20228 56010
KPHX 242320Z 2500/2606 26004KT P6SM FEW250 
     FM250400 10004KT P6SM SCT250 
     FM252100 26004KT P6SM SCT250 
     FM260500 09004KT P6SM SCT250
       
KSDF 242356Z 18007KT 10SM FEW210 BKN230 13/M03 A2982 RMK AO2 SLP101 T01281033 10161 20117 55002
KSDF 242342Z 2500/2606 19010KT P6SM SCT200 SCT250 
     FM250600 21013KT P6SM SCT120 SCT250 WS020/23048KT 
     FM251400 27012KT P6SM FEW025 
     FM251700 30014KT P6SM SKC
       
KIND 242354Z 18013KT 10SM SCT200 11/M01 A2970 RMK AO2 SLP062 T01111006 10150 20106 58012
KIND 242327Z 2500/2606 19013KT P6SM SCT100 SCT250 WS020/23040KT 
     FM250500 23008KT P6SM SCT250 
     FM251000 26006KT P6SM SCT200 
     FM251200 29006KT P6SM SCT080